Time;durP1;ratioP1;P1;durP2;ratioP2;P2;SDS_P1;SDS_P2;PMS_P1;PMS_P2;Temp;Humidity;BMP_temperature;BMP_pressure;BME280_temperature;BME280_humidity;BME280_pressure;Samples;Min_cycle;Max_cycle;Signal;HPM_P1;HPM_P2
2020/12/28 00:00:23;;;;;;;12.32;8.23;;;3.20;99.90;;;;;;5012005;28;20440;-71
2020/12/28 00:02:50;;;;;;;13.13;6.85;;;3.10;99.90;;;;;;5006313;28;20073;-68
2020/12/28 00:05:16;;;;;;;11.15;7.78;;;3.20;99.90;;;;;;5010558;28;20145;-69
2020/12/28 00:07:43;;;;;;;11.93;7.00;;;3.10;99.90;;;;;;5015105;28;20045;-65
2020/12/28 00:10:11;;;;;;;12.60;8.35;;;3.00;99.90;;;;;;5008927;28;20049;-68
2020/12/28 00:12:47;;;;;;;15.93;6.20;;;3.10;99.90;;;;;;5011360;28;20055;-72
2020/12/28 00:15:28;;;;;;;14.60;6.70;;;3.10;99.90;;;;;;5014376;28;20120;-66
2020/12/28 00:17:58;;;;;;;13.77;7.57;;;3.00;99.90;;;;;;5010932;28;20121;-68
2020/12/28 00:20:27;;;;;;;12.13;7.00;;;3.00;99.90;;;;;;5013167;28;20049;-72
2020/12/28 00:22:54;;;;;;;15.50;8.68;;;3.00;99.90;;;;;;5011863;28;20971;-67
2020/12/28 00:25:23;;;;;;;13.57;7.22;;;3.00;99.90;;;;;;5006353;28;20057;-72
2020/12/28 00:27:50;;;;;;;10.23;6.22;;;3.00;99.90;;;;;;5013162;28;20543;-70
2020/12/28 00:30:17;;;;;;;16.88;8.20;;;3.00;99.90;;;;;;5006990;28;20049;-67
2020/12/28 00:32:44;;;;;;;11.57;7.70;;;3.10;99.90;;;;;;5008472;28;20505;-68
2020/12/28 00:35:11;;;;;;;12.23;6.57;;;3.10;99.90;;;;;;5006361;28;20060;-68
2020/12/28 00:37:39;;;;;;;13.45;7.32;;;3.20;99.90;;;;;;5007194;28;20074;-69
2020/12/28 00:40:07;;;;;;;12.25;7.13;;;3.20;99.90;;;;;;5014419;28;20147;-66
2020/12/28 00:42:34;;;;;;;14.65;9.15;;;3.30;99.90;;;;;;5005719;28;20086;-67
2020/12/28 00:45:01;;;;;;;15.35;7.88;;;3.20;99.90;;;;;;5006939;28;20045;-71
2020/12/28 00:47:46;;;;;;;13.13;6.95;;;3.30;99.90;;;;;;5012982;28;20057;-68
2020/12/28 00:50:12;;;;;;;16.30;8.48;;;3.30;99.90;;;;;;5005673;28;20137;-74
2020/12/28 00:52:39;;;;;;;13.73;7.22;;;3.30;99.90;;;;;;5008087;28;20089;-70
2020/12/28 00:55:06;;;;;;;18.83;7.22;;;3.40;99.90;;;;;;5010902;28;20156;-65
2020/12/28 00:57:35;;;;;;;13.25;7.60;;;3.40;99.90;;;;;;5008299;28;22002;-67
2020/12/28 01:00:05;;;;;;;13.77;7.47;;;3.50;99.90;;;;;;5012011;28;20116;-66
2020/12/28 01:02:51;;;;;;;19.52;8.50;;;3.50;99.90;;;;;;5010520;28;20038;-69
2020/12/28 01:05:28;;;;;;;12.07;7.10;;;3.50;99.90;;;;;;5038120;28;20045;-68
2020/12/28 01:07:57;;;;;;;13.15;8.05;;;3.50;99.90;;;;;;5043947;28;20100;-66
2020/12/28 01:10:30;;;;;;;14.32;7.03;;;3.50;99.90;;;;;;5007130;28;20151;-68
2020/12/28 01:13:01;;;;;;;;;;;3.50;99.90;;;;;;5029157;28;20041;-66
2020/12/28 01:15:27;;;;;;;13.30;7.90;;;3.40;99.90;;;;;;5049549;28;19983;-66
2020/12/28 01:17:54;;;;;;;16.92;8.73;;;3.40;99.90;;;;;;5028359;28;20054;-67
2020/12/28 01:20:44;;;;;;;22.50;9.20;;;3.40;99.90;;;;;;5027939;28;20148;-67
2020/12/28 01:23:12;;;;;;;15.02;8.23;;;3.40;99.90;;;;;;5032168;28;20457;-67
2020/12/28 01:25:59;;;;;;;21.23;7.90;;;3.40;99.90;;;;;;5024636;28;20049;-68
2020/12/28 01:28:29;;;;;;;17.85;9.77;;;3.40;99.90;;;;;;5031834;28;20052;-71
2020/12/28 01:30:55;;;;;;;14.65;8.20;;;3.40;99.90;;;;;;5024009;28;20068;-70
2020/12/28 01:33:48;;;;;;;15.88;9.38;;;3.40;99.90;;;;;;5018181;28;20479;-66
2020/12/28 01:36:18;;;;;;;18.85;9.85;;;3.40;99.90;;;;;;5025550;28;20171;-67
2020/12/28 01:38:45;;;;;;;21.42;9.85;;;3.40;99.90;;;;;;5022661;28;20049;-66
2020/12/28 01:41:14;;;;;;;13.75;9.07;;;3.40;99.90;;;;;;5008095;28;20044;-70
2020/12/28 01:43:46;;;;;;;15.98;8.07;;;3.40;99.90;;;;;;5010045;28;20049;-73
2020/12/28 01:46:16;;;;;;;14.98;8.35;;;3.40;99.90;;;;;;5001683;28;20069;-66
2020/12/28 01:48:45;;;;;;;17.50;9.10;;;3.40;99.90;;;;;;5003836;28;20046;-66
2020/12/28 01:51:15;;;;;;;;;;;3.40;99.90;;;;;;5007343;28;20068;-65
2020/12/28 01:53:42;;;;;;;17.98;9.27;;;3.40;99.90;;;;;;5005972;28;19940;-70
2020/12/28 01:56:19;;;;;;;18.15;9.65;;;3.40;99.90;;;;;;5016197;28;20154;-66
2020/12/28 01:58:49;;;;;;;19.95;9.73;;;3.40;99.90;;;;;;5004282;28;20054;-68
2020/12/28 02:01:19;;;;;;;15.23;8.35;;;3.40;99.90;;;;;;5038534;28;20042;-68
2020/12/28 02:03:46;;;;;;;21.30;10.80;;;3.40;99.90;;;;;;5022464;28;20042;-68
2020/12/28 02:06:19;;;;;;;18.52;10.05;;;3.40;99.90;;;;;;5005366;28;20070;-66
2020/12/28 02:08:46;;;;;;;15.52;8.65;;;3.40;99.90;;;;;;5004504;28;20049;-67
2020/12/28 02:11:12;;;;;;;15.90;8.60;;;3.40;99.90;;;;;;5003218;28;20386;-66
2020/12/28 02:13:39;;;;;;;18.65;9.63;;;3.40;99.90;;;;;;5033288;28;20057;-71
2020/12/28 02:16:26;;;;;;;17.27;9.38;;;3.40;99.90;;;;;;5013235;28;20383;-67
2020/12/28 02:19:01;;;;;;;13.82;8.80;;;3.30;99.90;;;;;;5008377;28;20061;-71
2020/12/28 02:21:33;;;;;;;19.42;9.45;;;3.30;99.90;;;;;;5020077;28;20097;-66
2020/12/28 02:24:00;;;;;;;16.85;10.15;;;3.30;99.90;;;;;;5012997;28;20137;-66
2020/12/28 02:26:29;;;;;;;16.63;8.55;;;3.40;99.90;;;;;;5006319;28;20046;-67
2020/12/28 02:28:55;;;;;;;12.35;7.78;;;3.30;99.90;;;;;;5011469;28;20058;-67
2020/12/28 02:31:22;;;;;;;15.55;9.77;;;3.30;99.90;;;;;;5004697;28;20501;-66
2020/12/28 02:34:00;;;;;;;14.35;8.85;;;3.30;99.90;;;;;;5003798;28;20054;-68
2020/12/28 02:36:35;;;;;;;16.75;9.05;;;3.40;99.90;;;;;;5011527;28;20153;-67
2020/12/28 02:39:02;;;;;;;14.48;9.50;;;3.40;99.90;;;;;;5005975;28;20042;-69
2020/12/28 02:41:29;;;;;;;14.82;9.05;;;3.40;99.90;;;;;;5008918;28;20053;-71
2020/12/28 02:44:29;;;;;;;16.70;10.05;;;3.40;99.90;;;;;;5000004;28;20053;-66
2020/12/28 02:47:14;;;;;;;15.18;9.02;;;3.40;99.90;;;;;;5025854;28;20122;-66
2020/12/28 02:49:59;;;;;;;12.05;8.93;;;3.40;99.90;;;;;;5023951;28;20130;-67
2020/12/28 02:52:45;;;;;;;14.52;9.52;;;3.40;99.90;;;;;;5024585;28;20780;-67
2020/12/28 02:55:30;;;;;;;19.65;9.75;;;3.40;99.90;;;;;;5025353;28;20574;-67
2020/12/28 02:58:14;;;;;;;17.20;9.40;;;3.40;99.90;;;;;;5025688;28;20064;-68
2020/12/28 03:00:59;;;;;;;16.70;10.32;;;3.40;99.90;;;;;;5023252;28;20053;-70
2020/12/28 03:03:44;;;;;;;11.93;8.65;;;3.40;99.90;;;;;;5028450;28;20515;-69
2020/12/28 03:06:30;;;;;;;15.48;9.52;;;3.40;99.90;;;;;;5023956;28;20055;-71
2020/12/28 03:09:26;;;;;;;14.05;8.18;;;3.40;99.90;;;;;;4936962;28;20036;-66
2020/12/28 03:12:25;;;;;;;14.20;9.20;;;3.40;99.90;;;;;;4991011;28;20045;-67
2020/12/28 03:15:11;;;;;;;22.05;10.32;;;3.40;99.90;;;;;;5023632;28;20044;-71
2020/12/28 03:17:56;;;;;;;12.27;8.73;;;3.40;99.90;;;;;;5028657;28;20044;-73
2020/12/28 03:20:41;;;;;;;15.00;10.10;;;3.40;99.90;;;;;;5029480;28;20064;-71
2020/12/28 03:23:26;;;;;;;13.90;9.02;;;3.40;99.90;;;;;;5030640;28;20052;-67
2020/12/28 03:26:12;;;;;;;15.15;9.88;;;3.40;99.90;;;;;;5033974;28;20595;-70
2020/12/28 03:28:58;;;;;;;22.60;10.13;;;3.50;99.90;;;;;;5030230;28;20248;-66
2020/12/28 03:31:43;;;;;;;18.45;9.45;;;3.50;99.90;;;;;;5033701;28;20514;-68
2020/12/28 03:34:28;;;;;;;19.58;9.00;;;3.60;99.90;;;;;;5032811;28;20098;-66
2020/12/28 03:37:13;;;;;;;12.75;8.75;;;3.60;99.90;;;;;;5025471;28;20037;-71
2020/12/28 03:39:58;;;;;;;15.00;9.48;;;3.60;99.90;;;;;;5034017;28;20063;-68
2020/12/28 03:42:43;;;;;;;18.20;9.43;;;3.60;99.90;;;;;;5030440;28;20119;-68
2020/12/28 03:45:28;;;;;;;13.55;9.52;;;3.60;99.90;;;;;;5031676;28;20189;-67
2020/12/28 03:48:14;;;;;;;15.10;10.13;;;3.60;99.90;;;;;;5029410;28;20468;-71
2020/12/28 03:50:59;;;;;;;15.77;9.85;;;3.60;99.90;;;;;;5026352;28;20167;-72
2020/12/28 03:53:44;;;;;;;12.80;9.57;;;3.60;99.90;;;;;;5028681;28;20222;-68
2020/12/28 03:56:29;;;;;;;20.63;9.98;;;3.60;99.90;;;;;;5034275;28;20397;-70
2020/12/28 03:59:14;;;;;;;12.10;7.65;;;3.60;99.90;;;;;;5007109;28;20124;-67
2020/12/28 04:01:59;;;;;;;14.88;9.15;;;3.70;99.90;;;;;;5014451;28;20052;-69
2020/12/28 04:04:52;;;;;;;15.02;9.60;;;3.70;99.90;;;;;;5007406;28;20045;-67
2020/12/28 04:07:37;;;;;;;14.93;9.95;;;3.60;99.90;;;;;;5007578;28;20056;-69
2020/12/28 04:10:22;;;;;;;14.88;9.57;;;3.60;99.90;;;;;;5011597;28;20068;-70
2020/12/28 04:12:56;;;;;;;12.85;9.20;;;3.60;99.90;;;;;;5025664;28;20155;-69
2020/12/28 04:15:23;;;;;;;16.40;9.63;;;3.60;99.90;;;;;;5030480;28;20350;-67
2020/12/28 04:17:49;;;;;;;16.25;9.25;;;3.60;99.90;;;;;;5031226;28;20045;-67
2020/12/28 04:20:16;;;;;;;15.02;8.45;;;3.60;99.90;;;;;;5026099;28;20155;-68
2020/12/28 04:22:42;;;;;;;14.98;8.98;;;3.60;99.90;;;;;;5026014;28;20040;-67
2020/12/28 04:25:14;;;;;;;15.95;8.90;;;3.60;99.90;;;;;;5034955;28;20459;-68
2020/12/28 04:27:41;;;;;;;15.50;9.20;;;3.60;99.90;;;;;;5025496;28;20137;-71
2020/12/28 04:30:09;;;;;;;16.08;9.95;;;3.60;99.90;;;;;;5037097;28;20110;-68
2020/12/28 04:32:35;;;;;;;15.65;8.52;;;3.60;99.90;;;;;;5028560;28;20053;-66
2020/12/28 04:35:03;;;;;;;14.38;10.15;;;3.60;99.90;;;;;;5026769;28;20459;-67
2020/12/28 04:37:30;;;;;;;16.73;9.63;;;3.60;99.90;;;;;;5026711;28;20378;-69
2020/12/28 04:39:57;;;;;;;15.35;9.50;;;3.60;99.90;;;;;;5029934;28;20087;-69
2020/12/28 04:42:28;;;;;;;16.27;10.07;;;3.60;99.90;;;;;;5028388;28;20119;-71
2020/12/28 04:44:56;;;;;;;12.50;9.13;;;3.60;99.90;;;;;;5025011;28;20184;-67
2020/12/28 04:47:22;;;;;;;14.95;8.40;;;3.60;99.90;;;;;;5030351;28;20069;-67
2020/12/28 04:49:49;;;;;;;16.30;9.77;;;3.60;99.90;;;;;;5022158;28;20081;-68
2020/12/28 04:52:17;;;;;;;13.15;7.95;;;3.60;99.90;;;;;;5004401;28;20186;-67
2020/12/28 04:54:46;;;;;;;21.52;10.98;;;3.70;99.90;;;;;;5014199;28;20042;-69
2020/12/28 04:57:13;;;;;;;18.27;11.73;;;3.70;99.90;;;;;;5009149;28;20064;-69
2020/12/28 04:59:41;;;;;;;13.07;8.35;;;3.70;99.90;;;;;;5007556;28;20454;-67
2020/12/28 05:02:07;;;;;;;14.90;9.23;;;3.70;99.90;;;;;;5005317;28;20053;-74
2020/12/28 05:04:34;;;;;;;15.60;9.18;;;3.70;99.90;;;;;;5008927;28;20077;-65
2020/12/28 05:07:05;;;;;;;13.52;9.25;;;3.80;99.90;;;;;;5010344;28;20042;-68
2020/12/28 05:09:33;;;;;;;20.90;9.55;;;3.80;99.90;;;;;;5006734;28;20492;-66
2020/12/28 05:12:01;;;;;;;24.90;12.65;;;3.80;99.90;;;;;;5004096;28;20143;-70
2020/12/28 05:14:28;;;;;;;15.25;9.85;;;3.80;99.90;;;;;;5014412;28;20037;-65
2020/12/28 05:17:07;;;;;;;18.90;9.55;;;3.80;99.90;;;;;;5003856;28;20223;-70
2020/12/28 05:19:35;;;;;;;16.15;10.10;;;3.80;99.90;;;;;;5008050;28;20549;-65
2020/12/28 05:22:02;;;;;;;14.50;10.40;;;3.80;99.90;;;;;;5015302;28;20046;-71
2020/12/28 05:24:28;;;;;;;16.27;10.50;;;3.80;99.90;;;;;;5006307;28;20525;-69
2020/12/28 05:26:57;;;;;;;20.50;10.65;;;3.80;99.90;;;;;;5004896;28;20049;-71
2020/12/28 05:29:26;;;;;;;19.50;10.15;;;3.80;99.90;;;;;;5011704;28;20046;-66
2020/12/28 05:31:55;;;;;;;18.45;9.85;;;3.90;99.90;;;;;;5003919;28;20095;-66
2020/12/28 05:34:26;;;;;;;19.95;10.40;;;3.80;99.90;;;;;;5007490;28;20061;-67
2020/12/28 05:36:58;;;;;;;13.32;9.45;;;3.90;99.90;;;;;;5012161;28;20394;-67
2020/12/28 05:39:26;;;;;;;14.90;9.05;;;3.90;99.90;;;;;;5007224;28;20321;-73
2020/12/28 05:42:10;;;;;;;15.52;9.68;;;3.90;99.90;;;;;;5015197;28;20069;-68
2020/12/28 05:44:41;;;;;;;17.95;10.27;;;4.00;99.90;;;;;;5008301;28;20053;-69
2020/12/28 05:47:17;;;;;;;18.80;10.00;;;3.90;99.90;;;;;;5011728;28;20058;-67
2020/12/28 05:49:48;;;;;;;13.82;9.80;;;3.90;99.90;;;;;;5012572;28;20382;-66
2020/12/28 05:52:16;;;;;;;21.42;9.38;;;4.00;99.90;;;;;;5003595;28;20061;-71
2020/12/28 05:54:43;;;;;;;19.67;9.75;;;3.90;99.90;;;;;;5012527;28;20080;-69
2020/12/28 05:57:10;;;;;;;14.57;9.07;;;3.90;99.90;;;;;;5010290;28;20765;-70
2020/12/28 05:59:38;;;;;;;14.88;9.88;;;4.00;99.90;;;;;;5004395;28;20402;-68
2020/12/28 06:02:08;;;;;;;19.60;10.07;;;4.00;99.90;;;;;;5010158;28;20552;-67
2020/12/28 06:04:38;;;;;;;17.48;9.73;;;4.00;99.90;;;;;;5006751;28;20058;-70
2020/12/28 06:07:10;;;;;;;20.00;11.80;;;3.90;99.90;;;;;;5020631;28;20482;-66
2020/12/28 06:09:36;;;;;;;18.13;9.98;;;4.00;99.90;;;;;;4976053;28;20042;-65
2020/12/28 06:12:06;;;;;;;17.17;10.27;;;4.00;99.90;;;;;;4972062;28;20078;-67
2020/12/28 06:14:40;;;;;;;20.27;9.70;;;4.00;99.90;;;;;;4974713;28;20542;-63
2020/12/28 06:17:09;;;;;;;19.98;10.05;;;4.00;99.90;;;;;;4974229;28;20105;-66
2020/12/28 06:19:36;;;;;;;13.95;10.32;;;4.00;99.90;;;;;;4975731;28;20043;-63
2020/12/28 06:22:16;;;;;;;18.15;9.88;;;3.90;99.90;;;;;;4977724;28;20631;-67
2020/12/28 06:24:43;;;;;;;18.35;9.15;;;3.90;99.90;;;;;;4973900;28;20046;-64
2020/12/28 06:27:10;;;;;;;17.52;10.77;;;3.90;99.90;;;;;;4976086;28;20636;-66
2020/12/28 06:30:18;;;;;;;20.98;13.32;;;3.90;99.90;;;;;;4977597;28;20053;-65
2020/12/28 06:32:50;;;;;;;16.83;9.75;;;4.00;99.90;;;;;;4972405;28;20054;-66
2020/12/28 06:35:17;;;;;;;17.15;10.30;;;4.00;99.90;;;;;;4975227;28;20092;-66
2020/12/28 06:37:54;;;;;;;16.75;10.75;;;4.00;99.90;;;;;;4966741;28;20114;-63
2020/12/28 06:40:45;;;;;;;18.95;10.20;;;3.90;99.90;;;;;;4970782;28;20455;-66
2020/12/28 06:43:15;;;;;;;15.85;11.35;;;3.90;99.90;;;;;;4974890;28;20154;-66
2020/12/28 06:45:44;;;;;;;13.68;10.07;;;4.00;99.90;;;;;;4970716;28;20046;-66
2020/12/28 06:48:17;;;;;;;14.38;9.93;;;4.00;99.90;;;;;;4972856;28;20047;-68
2020/12/28 06:50:48;;;;;;;19.02;10.48;;;4.00;99.90;;;;;;4976927;28;20035;-67
2020/12/28 06:53:23;;;;;;;14.65;10.00;;;4.00;99.90;;;;;;4970228;28;20054;-63
2020/12/28 06:55:49;;;;;;;19.70;11.60;;;4.00;99.90;;;;;;4971855;28;20209;-66
2020/12/28 06:58:16;;;;;;;24.30;14.05;;;4.00;99.90;;;;;;4976353;28;20134;-65
2020/12/28 07:00:43;;;;;;;16.83;10.38;;;4.00;99.90;;;;;;4969831;28;20062;-65
2020/12/28 07:03:14;;;;;;;22.95;12.18;;;4.00;99.90;;;;;;4977148;28;20105;-69
2020/12/28 07:05:41;;;;;;;20.60;10.70;;;4.00;99.90;;;;;;4975798;28;20055;-68
2020/12/28 07:08:08;;;;;;;14.85;9.65;;;4.00;99.90;;;;;;4973475;28;20104;-64
2020/12/28 07:10:35;;;;;;;18.17;10.15;;;4.00;99.90;;;;;;4974061;28;20159;-66
2020/12/28 07:13:06;;;;;;;13.70;9.63;;;4.00;99.90;;;;;;4969200;28;20161;-66
2020/12/28 07:15:33;;;;;;;18.25;9.88;;;4.00;99.90;;;;;;4973492;28;20130;-68
2020/12/28 07:18:06;;;;;;;18.98;9.82;;;4.00;99.90;;;;;;4965085;28;20141;-69
2020/12/28 07:20:33;;;;;;;22.58;10.65;;;4.00;99.90;;;;;;4959231;28;20057;-66
2020/12/28 07:23:00;;;;;;;17.77;9.38;;;4.00;99.90;;;;;;4960741;28;20059;-68
2020/12/28 07:25:26;;;;;;;15.30;9.43;;;4.00;99.90;;;;;;4961362;28;20046;-70
2020/12/28 07:27:54;;;;;;;20.77;11.25;;;4.00;99.90;;;;;;4961675;28;20348;-68
2020/12/28 07:30:20;;;;;;;20.83;10.20;;;3.90;99.90;;;;;;4962150;28;20053;-68
2020/12/28 07:32:47;;;;;;;14.10;10.48;;;3.90;99.90;;;;;;4956147;28;20134;-68
2020/12/28 07:35:13;;;;;;;15.85;10.20;;;3.90;99.90;;;;;;4957494;28;20046;-66
2020/12/28 07:37:42;;;;;;;16.67;10.20;;;3.90;99.90;;;;;;4956910;28;20097;-68
2020/12/28 07:40:09;;;;;;;23.33;10.70;;;3.90;99.90;;;;;;4964361;28;20208;-68
2020/12/28 07:42:36;;;;;;;15.25;10.43;;;3.90;99.90;;;;;;4965219;28;20108;-65
2020/12/28 07:45:09;;;;;;;18.48;11.35;;;3.90;99.90;;;;;;4956583;28;20166;-71
2020/12/28 07:47:52;;;;;;;16.10;11.68;;;3.90;99.90;;;;;;4957896;28;20050;-73
2020/12/28 07:50:19;;;;;;;17.27;11.98;;;3.90;99.90;;;;;;4962968;28;20117;-69
2020/12/28 07:53:00;;;;;;;20.20;11.40;;;3.90;99.90;;;;;;4958139;28;20282;-69
2020/12/28 07:55:34;;;;;;;19.95;11.25;;;3.80;99.90;;;;;;4962200;28;20084;-68
2020/12/28 07:58:12;;;;;;;18.63;11.57;;;3.80;99.90;;;;;;4958035;28;20070;-69
2020/12/28 08:00:46;;;;;;;15.63;10.60;;;3.80;99.90;;;;;;4959148;28;20157;-71
2020/12/28 08:03:31;;;;;;;18.08;10.52;;;3.80;99.90;;;;;;4960081;28;20070;-66
2020/12/28 08:06:04;;;;;;;20.67;11.35;;;3.80;99.90;;;;;;4958518;28;20166;-66
2020/12/28 08:08:30;;;;;;;17.10;10.20;;;3.80;99.90;;;;;;4958772;28;20047;-71
2020/12/28 08:11:00;;;;;;;20.00;10.65;;;3.80;99.90;;;;;;4963312;28;20094;-69
2020/12/28 08:13:29;;;;;;;13.63;9.35;;;3.80;99.90;;;;;;4958766;28;20181;-67
2020/12/28 08:16:10;;;;;;;18.48;10.65;;;3.80;99.90;;;;;;4962816;28;20577;-67
2020/12/28 08:18:50;;;;;;;16.83;10.20;;;3.80;99.90;;;;;;4967374;28;20058;-66
2020/12/28 08:21:17;;;;;;;21.48;12.30;;;3.80;99.90;;;;;;4957252;28;20420;-66
2020/12/28 08:23:51;;;;;;;15.23;10.27;;;3.80;99.90;;;;;;4962418;28;20718;-70
2020/12/28 08:26:23;;;;;;;20.50;11.27;;;3.80;99.90;;;;;;4965969;28;20050;-68
2020/12/28 08:28:52;;;;;;;25.30;12.88;;;3.80;99.90;;;;;;4956575;28;20050;-68
2020/12/28 08:31:29;;;;;;;18.85;10.48;;;3.80;99.90;;;;;;4961304;28;20047;-68
2020/12/28 08:34:09;;;;;;;22.17;9.90;;;3.80;99.90;;;;;;4958582;28;20681;-69
2020/12/28 08:36:39;;;;;;;13.68;9.65;;;3.80;99.90;;;;;;4957078;28;20035;-67
2020/12/28 08:39:18;;;;;;;23.05;12.13;;;3.80;99.90;;;;;;4959695;28;20051;-66
2020/12/28 08:42:00;;;;;;;20.00;10.80;;;3.90;99.90;;;;;;4957940;28;20487;-69
2020/12/28 08:44:38;;;;;;;19.48;10.43;;;3.90;99.90;;;;;;4960248;28;20503;-67
2020/12/28 08:47:08;;;;;;;17.27;10.55;;;3.80;99.90;;;;;;4960432;28;20070;-67
2020/12/28 08:49:35;;;;;;;16.85;11.57;;;3.80;99.90;;;;;;4958739;28;20134;-66
2020/12/28 08:52:11;;;;;;;12.68;10.63;;;3.80;99.90;;;;;;4959598;28;20050;-72
2020/12/28 08:54:38;;;;;;;19.15;10.52;;;3.80;99.90;;;;;;4960964;28;20101;-67
2020/12/28 08:57:05;;;;;;;19.00;13.60;;;3.80;99.90;;;;;;4957633;28;20058;-68
2020/12/28 08:59:32;;;;;;;18.50;10.63;;;3.80;99.90;;;;;;4962673;28;20043;-69
2020/12/28 09:01:58;;;;;;;18.05;10.18;;;3.80;99.90;;;;;;4959492;28;20058;-70
2020/12/28 09:04:25;;;;;;;17.83;11.57;;;3.80;99.90;;;;;;4959439;28;20175;-67
2020/12/28 09:06:53;;;;;;;22.33;12.60;;;3.80;99.90;;;;;;4959175;28;20058;-69
2020/12/28 09:09:19;;;;;;;16.52;10.77;;;3.80;99.90;;;;;;4955420;28;20050;-68
2020/12/28 09:11:46;;;;;;;19.23;10.68;;;3.80;99.90;;;;;;4961310;28;20609;-66
2020/12/28 09:14:13;;;;;;;13.77;10.70;;;3.80;99.90;;;;;;4953141;28;20418;-68
2020/12/28 09:16:40;;;;;;;26.05;10.95;;;3.90;99.90;;;;;;4954377;28;20046;-68
2020/12/28 09:19:06;;;;;;;20.08;10.85;;;3.90;99.90;;;;;;4960519;28;20074;-68
2020/12/28 09:21:33;;;;;;;17.95;12.38;;;3.80;99.90;;;;;;4953856;28;20450;-68
2020/12/28 09:23:59;;;;;;;16.20;10.98;;;3.80;99.90;;;;;;4959581;28;20105;-65
2020/12/28 09:26:29;;;;;;;16.30;10.68;;;3.80;99.90;;;;;;4958469;28;20431;-65
2020/12/28 09:28:55;;;;;;;18.58;10.50;;;3.90;99.90;;;;;;4958165;28;20074;-73
2020/12/28 09:31:22;;;;;;;20.13;11.55;;;3.80;99.90;;;;;;4962009;28;20140;-71
2020/12/28 09:33:49;;;;;;;18.95;11.70;;;3.90;99.90;;;;;;4958412;28;20055;-68
2020/12/28 09:36:19;;;;;;;20.92;10.32;;;3.90;99.90;;;;;;4959575;28;20051;-68
2020/12/28 09:38:46;;;;;;;;;;;3.90;99.90;;;;;;4954303;28;20514;-66
2020/12/28 09:41:13;;;;;;;20.25;11.65;;;3.90;99.90;;;;;;4958573;28;20016;-67
2020/12/28 09:43:41;;;;;;;18.02;11.57;;;3.90;99.90;;;;;;4957497;28;20098;-69
2020/12/28 09:46:10;;;;;;;15.18;10.65;;;3.90;99.90;;;;;;4958993;28;20110;-68
2020/12/28 09:48:37;;;;;;;21.10;12.50;;;3.90;99.90;;;;;;4956246;28;20042;-68
2020/12/28 09:51:06;;;;;;;23.30;11.27;;;3.90;99.90;;;;;;4965494;28;20723;-72
2020/12/28 09:53:33;;;;;;;21.02;12.82;;;3.90;99.90;;;;;;4952264;28;20055;-66
2020/12/28 09:55:59;;;;;;;17.95;10.25;;;3.90;99.90;;;;;;4961907;28;20564;-66
2020/12/28 09:58:25;;;;;;;16.30;10.82;;;3.90;99.90;;;;;;4958653;28;20370;-65
2020/12/28 10:00:52;;;;;;;19.17;11.63;;;3.90;99.90;;;;;;4957184;28;20058;-69
2020/12/28 10:03:19;;;;;;;14.23;10.73;;;3.90;99.90;;;;;;4956927;28;20034;-70
2020/12/28 10:05:45;;;;;;;17.38;10.82;;;3.90;99.90;;;;;;4955309;28;20082;-66
2020/12/28 10:08:12;;;;;;;18.38;11.23;;;3.90;99.90;;;;;;4958384;28;20053;-69
2020/12/28 10:10:38;;;;;;;15.35;10.30;;;3.90;99.90;;;;;;4958130;28;20047;-67
2020/12/28 10:13:04;;;;;;;22.60;11.75;;;3.80;99.90;;;;;;4957888;28;20738;-67
2020/12/28 10:15:31;;;;;;;16.15;10.60;;;3.80;99.90;;;;;;4962951;28;20058;-68
2020/12/28 10:18:21;;;;;;;17.75;10.68;;;3.80;99.90;;;;;;4956674;28;20061;-67
2020/12/28 10:20:49;;;;;;;;;;;3.80;99.90;;;;;;4951884;28;20058;-68
2020/12/28 10:23:16;;;;;;;16.90;10.85;;;3.80;99.90;;;;;;4956261;28;20396;-71
2020/12/28 10:25:44;;;;;;;18.70;12.65;;;3.80;99.90;;;;;;4954360;28;20133;-69
2020/12/28 10:28:10;;;;;;;16.10;10.70;;;3.80;99.90;;;;;;4963589;28;20160;-70
2020/12/28 10:30:37;;;;;;;20.25;11.25;;;3.80;99.90;;;;;;4956472;28;20051;-66
2020/12/28 10:33:03;;;;;;;15.30;11.20;;;3.80;99.90;;;;;;4953860;28;20097;-65
2020/12/28 10:35:30;;;;;;;20.55;11.82;;;3.80;99.90;;;;;;4960246;28;20046;-68
2020/12/28 10:37:56;;;;;;;20.00;11.52;;;3.80;99.90;;;;;;4953637;28;20162;-65
2020/12/28 10:40:23;;;;;;;18.90;11.35;;;3.80;99.90;;;;;;4965278;28;20042;-70
2020/12/28 10:43:03;;;;;;;16.27;10.60;;;3.80;99.90;;;;;;4956258;28;20051;-68
2020/12/28 10:45:30;;;;;;;15.65;9.98;;;3.80;99.90;;;;;;4956411;28;20047;-70
2020/12/28 10:47:56;;;;;;;23.25;11.02;;;3.80;99.90;;;;;;4964580;28;20073;-66
2020/12/28 10:50:22;;;;;;;18.63;10.90;;;3.80;99.90;;;;;;4956220;28;20117;-66
2020/12/28 10:52:49;;;;;;;17.60;11.65;;;3.80;99.90;;;;;;4959095;28;20043;-67
2020/12/28 10:55:16;;;;;;;15.23;11.10;;;3.80;99.90;;;;;;4959934;28;20066;-66
2020/12/28 10:57:42;;;;;;;16.23;10.85;;;3.80;99.90;;;;;;4959441;28;20475;-72
2020/12/28 11:00:08;;;;;;;17.27;10.55;;;3.80;99.90;;;;;;4960758;28;20492;-65
2020/12/28 11:02:35;;;;;;;13.80;10.90;;;3.80;99.90;;;;;;4955743;28;20058;-68
2020/12/28 11:05:01;;;;;;;12.73;10.43;;;3.80;99.90;;;;;;4968266;28;20178;-72
2020/12/28 11:07:28;;;;;;;18.00;11.48;;;3.80;99.90;;;;;;4961866;28;20058;-67
2020/12/28 11:09:54;;;;;;;15.40;11.07;;;3.80;99.90;;;;;;4958345;28;20138;-66
2020/12/28 11:12:20;;;;;;;16.83;11.55;;;3.80;99.90;;;;;;4961512;28;20054;-66
2020/12/28 11:14:48;;;;;;;17.38;11.38;;;3.80;99.90;;;;;;4959617;28;20715;-70
2020/12/28 11:17:16;;;;;;;16.20;11.35;;;3.90;99.90;;;;;;4963056;28;20053;-67
2020/12/28 11:19:42;;;;;;;20.45;13.02;;;3.80;99.90;;;;;;4966352;28;20490;-71
2020/12/28 11:22:09;;;;;;;16.80;12.07;;;3.90;99.90;;;;;;4961302;28;20042;-68
2020/12/28 11:24:35;;;;;;;21.80;12.50;;;3.90;99.90;;;;;;4960589;28;20494;-66
2020/12/28 11:27:01;;;;;;;22.40;12.75;;;3.90;99.90;;;;;;4955106;28;20062;-69
2020/12/28 11:29:28;;;;;;;18.95;12.93;;;3.90;99.90;;;;;;4958712;28;20070;-72
2020/12/28 11:31:54;;;;;;;19.73;12.07;;;3.90;99.90;;;;;;4958476;28;20051;-70
2020/12/28 11:34:21;;;;;;;16.08;12.27;;;3.90;99.90;;;;;;4961440;28;20058;-67
2020/12/28 11:36:47;;;;;;;17.15;11.65;;;3.90;99.90;;;;;;4962200;28;20129;-71
2020/12/28 11:39:14;;;;;;;19.15;12.55;;;3.90;99.90;;;;;;4960291;28;20047;-66
2020/12/28 11:41:41;;;;;;;22.95;14.90;;;3.90;99.90;;;;;;4959589;28;20035;-72
2020/12/28 11:44:10;;;;;;;15.30;11.90;;;3.90;99.90;;;;;;4960360;28;20157;-69
2020/12/28 11:46:38;;;;;;;14.00;10.02;;;3.90;99.90;;;;;;4957944;28;20498;-65
2020/12/28 11:49:05;;;;;;;18.33;11.25;;;3.90;99.90;;;;;;4964816;28;20047;-72
2020/12/28 11:51:31;;;;;;;19.95;12.88;;;3.90;99.90;;;;;;4958632;28;20047;-68
2020/12/28 11:53:58;;;;;;;14.90;10.27;;;3.90;99.90;;;;;;4959341;28;20456;-68
2020/12/28 11:56:24;;;;;;;18.50;11.30;;;3.90;99.90;;;;;;4955657;28;20074;-65
2020/12/28 11:58:51;;;;;;;21.83;11.70;;;3.90;99.90;;;;;;4956003;28;20142;-67
2020/12/28 12:01:19;;;;;;;17.48;12.13;;;3.90;99.90;;;;;;4954821;28;20082;-72
2020/12/28 12:03:47;;;;;;;16.70;11.80;;;3.90;99.90;;;;;;4960836;28;20058;-68
2020/12/28 12:06:22;;;;;;;14.68;11.23;;;3.90;99.90;;;;;;4957787;28;20083;-68
2020/12/28 12:09:10;;;;;;;14.55;11.27;;;3.90;99.90;;;;;;4953469;28;20038;-68
2020/12/28 12:11:40;;;;;;;18.02;11.70;;;3.90;99.90;;;;;;4959844;28;20074;-71
2020/12/28 12:14:06;;;;;;;16.50;10.57;;;3.90;99.90;;;;;;4959034;28;20503;-68
2020/12/28 12:16:33;;;;;;;21.30;12.85;;;3.90;99.90;;;;;;4960984;28;20114;-66
2020/12/28 12:18:59;;;;;;;19.17;12.52;;;3.90;99.90;;;;;;4957492;28;20402;-69
2020/12/28 12:21:26;;;;;;;15.48;11.52;;;3.90;99.90;;;;;;4966339;28;20059;-69
2020/12/28 12:23:53;;;;;;;16.15;12.55;;;3.90;99.90;;;;;;4959259;28;20511;-68
2020/12/28 12:26:22;;;;;;;22.27;12.73;;;3.90;99.90;;;;;;4957303;28;20047;-74
2020/12/28 12:28:50;;;;;;;19.35;11.20;;;3.90;99.90;;;;;;4965050;28;20063;-67
2020/12/28 12:31:17;;;;;;;19.05;11.68;;;3.90;99.90;;;;;;4960200;28;20057;-66
2020/12/28 12:33:44;;;;;;;21.38;12.18;;;3.90;99.90;;;;;;4957997;28;20078;-66
2020/12/28 12:36:12;;;;;;;15.48;12.43;;;4.00;99.90;;;;;;4960405;28;20081;-66
2020/12/28 12:38:39;;;;;;;19.52;12.82;;;4.00;99.90;;;;;;4956551;28;20054;-66
2020/12/28 12:41:05;;;;;;;27.67;14.27;;;4.00;99.90;;;;;;4960618;28;20062;-69
2020/12/28 12:43:32;;;;;;;23.35;14.68;;;4.00;99.90;;;;;;4953649;28;20051;-71
2020/12/28 12:45:58;;;;;;;21.05;12.70;;;4.00;99.90;;;;;;4959605;28;20046;-71
2020/12/28 12:48:25;;;;;;;18.02;12.63;;;4.00;99.90;;;;;;4961628;28;20121;-68
2020/12/28 12:50:53;;;;;;;20.13;11.88;;;4.00;99.90;;;;;;4962092;28;20097;-66
2020/12/28 12:53:21;;;;;;;21.77;13.65;;;4.00;99.90;;;;;;4958691;28;20461;-68
2020/12/28 12:55:47;;;;;;;22.20;12.80;;;4.00;99.90;;;;;;4958007;28;20128;-69
2020/12/28 12:58:14;;;;;;;19.27;13.63;;;4.10;99.90;;;;;;4960177;28;20560;-68
2020/12/28 13:00:41;;;;;;;20.55;14.85;;;4.10;99.90;;;;;;4958901;28;20054;-67
2020/12/28 13:03:08;;;;;;;17.77;12.38;;;4.10;99.90;;;;;;4957896;28;20101;-67